Time;durP1;ratioP1;P1;durP2;ratioP2;P2;SDS_P1;SDS_P2;PMS_P1;PMS_P2;Temp;Humidity;BMP_temperature;BMP_pressure;BME280_temperature;BME280_humidity;BME280_pressure;Samples;Min_cycle;Max_cycle;Signal;HPM_P1;HPM_P2
2022/01/30 00:01:15;;;;;;;;;;;;;;;8.02;43.69;99560.72;4461017;32;35412;-63
2022/01/30 00:03:43;;;;;;;;;;;;;;;7.96;44.86;99557.59;4465568;32;34152;-63
2022/01/30 00:06:10;;;;;;;;;;;;;;;7.69;46.17;99563.81;4473941;32;35310;-63
2022/01/30 00:08:38;;;;;;;;;;;;;;;6.96;48.13;99554.28;4464145;32;34905;-64
2022/01/30 00:11:13;;;;;;;;;;;;;;;8.01;46.51;99556.34;4459954;32;34020;-65
2022/01/30 00:13:40;;;;;;;;;;;;;;;7.89;46.32;99552.69;4464061;32;34699;-63
2022/01/30 00:16:10;;;;;;;;;;;;;;;7.72;47.02;99544.97;4461844;32;33628;-63
2022/01/30 00:19:01;;;;;;;;;;;;;;;8.25;45.97;99535.19;4469119;32;34060;-63
2022/01/30 00:21:35;;;;;;;;;;;;;;;7.85;47.00;99529.88;4457541;32;33748;-62
2022/01/30 00:24:45;;;;;;;;;;;;;;;7.95;47.38;99527.44;4473260;32;34195;-64
2022/01/30 00:26:57;;;;;;;;;;;;;;;7.23;47.88;99519.75;4467071;32;34986;-62
2022/01/30 00:29:24;;;;;;;;;;;;;;;6.77;49.45;99511.16;4468703;32;33117;-63
2022/01/30 00:31:52;;;;;;;;;;;;;;;6.31;50.44;99506.03;4465438;32;34386;-64
2022/01/30 00:34:40;;;;;;;;;;;;;;;6.40;50.08;99491.34;4456643;32;33041;-63
2022/01/30 00:37:07;;;;;;;;;;;;;;;6.33;50.84;99485.53;4456132;32;35433;-62
2022/01/30 00:39:34;;;;;;;;;;;;;;;5.67;52.61;99473.53;4455333;32;35507;-64
2022/01/30 00:42:02;;;;;;;;;;;;;;;5.63;52.31;99473.81;4464341;32;34053;-63
2022/01/30 00:44:30;;;;;;;;;;;;;;;6.23;51.17;99469.31;4470310;32;34264;-62
2022/01/30 00:46:58;;;;;;;;;;;;;;;5.95;51.40;99463.94;4466635;32;34076;-63
2022/01/30 00:49:26;;;;;;;;;;;;;;;6.88;49.56;99465.28;4463336;32;34372;-64
2022/01/30 00:51:53;;;;;;;;;;;;;;;7.61;47.61;99468.44;4456877;32;34018;-62
2022/01/30 00:54:21;;;;;;;;;;;;;;;7.77;47.89;99470.94;4460498;32;33609;-64
2022/01/30 00:56:48;;;;;;;;;;;;;;;8.48;45.79;99466.09;4463265;32;33938;-64
2022/01/30 00:59:16;;;;;;;;;;;;;;;8.30;46.27;99457.53;4463495;32;34342;-64
2022/01/30 01:01:43;;;;;;;;;;;;;;;8.48;45.23;99448.28;4461753;32;34173;-65
2022/01/30 01:04:12;;;;;;;;;;;;;;;8.91;44.77;99445.19;4456079;32;33492;-65
2022/01/30 01:06:40;;;;;;;;;;;;;;;8.97;45.13;99466.09;4453727;32;34028;-65
2022/01/30 01:09:10;;;;;;;;;;;;;;;9.62;42.86;99451.50;4456515;32;34293;-64
2022/01/30 01:25:14;;;;;;;;;;;;;;;10.23;40.45;99409.34;4461690;32;32927;-63
2022/01/30 01:27:41;;;;;;;;;;;;;;;10.28;40.55;99417.03;4460903;32;33041;-62
2022/01/30 01:30:09;;;;;;;;;;;;;;;10.53;40.05;99423.09;4456745;32;34286;-64
2022/01/30 01:32:36;;;;;;;;;;;;;;;10.12;40.77;99414.69;4458711;32;34295;-63
2022/01/30 01:35:04;;;;;;;;;;;;;;;10.11;40.61;99399.63;4461911;32;32549;-62
2022/01/30 01:37:31;;;;;;;;;;;;;;;10.14;40.90;99394.00;4457886;32;34216;-63
2022/01/30 01:39:59;;;;;;;;;;;;;;;10.16;40.95;99380.53;4453370;32;32918;-65
2022/01/30 01:42:31;;;;;;;;;;;;;;;9.93;41.82;99383.19;4463761;32;34503;-65
2022/01/30 01:44:59;;;;;;;;;;;;;;;10.35;40.62;99378.13;4465258;32;33495;-66
2022/01/30 01:47:31;;;;;;;;;;;;;;;10.30;40.99;99374.13;4462570;32;33005;-63
2022/01/30 01:49:59;;;;;;;;;;;;;;;10.41;40.35;99363.41;4454985;32;33728;-63
2022/01/30 01:52:26;;;;;;;;;;;;;;;10.52;40.37;99362.56;4464750;32;32544;-64
2022/01/30 01:54:57;;;;;;;;;;;;;;;10.17;41.11;99353.66;4451928;32;33442;-64
2022/01/30 01:57:25;;;;;;;;;;;;;;;9.97;41.79;99349.88;4458750;32;34155;-64
2022/01/30 01:59:53;;;;;;;;;;;;;;;10.47;40.13;99346.88;4453882;32;35233;-65
2022/01/30 02:02:27;;;;;;;;;;;;;;;10.49;39.64;99352.94;4463376;32;34033;-65
2022/01/30 02:04:58;;;;;;;;;;;;;;;10.48;40.27;99352.09;4465710;32;33597;-64
2022/01/30 02:10:19;;;;;;;;;;;;;;;9.67;41.78;99346.94;4465066;32;34249;-64
2022/01/30 02:12:51;;;;;;;;;;;;;;;9.97;40.93;99327.66;4465825;32;34508;-64
2022/01/30 02:26:08;;;;;;;;;;;;;;;9.47;43.88;99308.37;4456422;32;34540;-63
2022/01/30 02:28:36;;;;;;;;;;;;;;;10.24;40.60;99305.88;4459776;32;33992;-64
2022/01/30 02:31:13;;;;;;;;;;;;;;;10.47;39.95;99307.59;4466696;32;35310;-64
2022/01/30 02:33:42;;;;;;;;;;;;;;;10.62;39.41;99283.22;4468096;32;33938;-64
2022/01/30 02:36:10;;;;;;;;;;;;;;;10.35;40.21;99275.63;4460878;32;31901;-65
2022/01/30 02:38:38;;;;;;;;;;;;;;;10.58;39.53;99279.09;4457034;32;34044;-63
2022/01/30 02:41:06;;;;;;;;;;;;;;;9.60;42.50;99270.88;4466094;32;34243;-63
2022/01/30 02:43:42;;;;;;;;;;;;;;;9.62;43.34;99259.09;4465000;32;34533;-63
2022/01/30 02:46:23;;;;;;;;;;;;;;;9.70;43.77;99246.00;4465651;32;32534;-64
2022/01/30 02:48:58;;;;;;;;;;;;;;;9.36;44.88;99242.44;4463894;32;34907;-64
2022/01/30 02:51:34;;;;;;;;;;;;;;;9.08;45.89;99239.25;4462197;32;35478;-63
2022/01/30 02:54:07;;;;;;;;;;;;;;;8.90;46.71;99234.47;4461988;32;35365;-66
2022/01/30 02:56:36;;;;;;;;;;;;;;;9.01;46.86;99231.81;4465903;32;35038;-66
2022/01/30 02:59:03;;;;;;;;;;;;;;;8.76;47.69;99235.47;4464689;32;33343;-64
2022/01/30 03:01:30;;;;;;;;;;;;;;;8.67;48.42;99239.72;4463368;32;35547;-64
2022/01/30 03:03:58;;;;;;;;;;;;;;;8.83;48.05;99228.75;4460293;32;34402;-65
2022/01/30 03:06:26;;;;;;;;;;;;;;;8.26;49.40;99226.75;4461371;32;33538;-64
2022/01/30 03:08:53;;;;;;;;;;;;;;;8.66;48.60;99222.00;4459945;32;34136;-63
2022/01/30 03:11:21;;;;;;;;;;;;;;;8.82;48.18;99217.19;4466263;32;34899;-64
2022/01/30 03:13:49;;;;;;;;;;;;;;;8.75;48.24;99220.44;4465224;32;34256;-64
2022/01/30 03:16:17;;;;;;;;;;;;;;;8.46;49.52;99219.97;4465236;32;33486;-63
2022/01/30 03:18:45;;;;;;;;;;;;;;;8.54;48.85;99220.22;4465734;32;34813;-63
2022/01/30 03:21:12;;;;;;;;;;;;;;;8.17;49.69;99209.59;4465081;32;34022;-64
2022/01/30 03:23:40;;;;;;;;;;;;;;;7.88;50.83;99207.25;4464177;32;34517;-64
2022/01/30 03:26:09;;;;;;;;;;;;;;;7.56;52.32;99212.22;4464279;32;32251;-65
2022/01/30 03:28:40;;;;;;;;;;;;;;;7.86;51.09;99198.50;4462749;32;34245;-65
2022/01/30 03:31:12;;;;;;;;;;;;;;;7.85;51.27;99199.47;4465211;32;34530;-65
2022/01/30 03:33:39;;;;;;;;;;;;;;;7.49;52.11;99192.31;4465880;32;34476;-66
2022/01/30 03:36:07;;;;;;;;;;;;;;;7.46;52.41;99188.03;4462346;32;33588;-64
2022/01/30 03:38:34;;;;;;;;;;;;;;;7.69;52.07;99188.22;4457855;32;35237;-65
2022/01/30 03:41:03;;;;;;;;;;;;;;;7.64;52.45;99185.03;4464985;32;35760;-65
2022/01/30 03:43:32;;;;;;;;;;;;;;;7.46;52.98;99185.37;4465306;32;35327;-62
2022/01/30 03:46:00;;;;;;;;;;;;;;;7.80;52.31;99168.78;4465076;32;33251;-63
2022/01/30 03:48:28;;;;;;;;;;;;;;;7.74;52.48;99156.78;4464434;32;33357;-63
2022/01/30 03:50:56;;;;;;;;;;;;;;;7.47;53.28;99157.78;4464553;32;34068;-64
2022/01/30 03:53:24;;;;;;;;;;;;;;;7.29;55.09;99193.72;4464801;32;34133;-64
2022/01/30 03:55:51;;;;;;;;;;;;;;;7.42;53.56;99188.38;4462660;32;32880;-64
2022/01/30 03:58:20;;;;;;;;;;;;;;;7.02;54.68;99184.97;4464889;32;33813;-64
2022/01/30 04:00:48;;;;;;;;;;;;;;;7.48;53.39;99169.31;4465135;32;34484;-65
2022/01/30 04:03:16;;;;;;;;;;;;;;;7.25;54.51;99168.25;4466564;32;34527;-62
2022/01/30 04:05:43;;;;;;;;;;;;;;;7.43;53.85;99152.81;4463283;32;33514;-63
2022/01/30 04:08:11;;;;;;;;;;;;;;;7.11;54.95;99163.91;4464502;32;33856;-65
2022/01/30 04:10:40;;;;;;;;;;;;;;;7.19;54.50;99166.88;4464522;32;34383;-64
2022/01/30 04:13:07;;;;;;;;;;;;;;;7.33;54.27;99165.06;4467647;32;34475;-63
2022/01/30 04:15:35;;;;;;;;;;;;;;;7.20;54.72;99154.44;4466622;32;32997;-63
2022/01/30 04:18:03;;;;;;;;;;;;;;;7.10;55.32;99146.25;4466222;32;34854;-64
2022/01/30 04:20:30;;;;;;;;;;;;;;;7.53;54.10;99156.50;4456366;32;34112;-63
2022/01/30 04:23:00;;;;;;;;;;;;;;;7.38;54.48;99145.16;4465430;32;34894;-63
2022/01/30 04:25:28;;;;;;;;;;;;;;;7.11;55.01;99161.25;4465721;32;34182;-63
2022/01/30 04:27:56;;;;;;;;;;;;;;;7.26;55.08;99147.84;4465363;32;33897;-63
2022/01/30 04:30:23;;;;;;;;;;;;;;;7.63;54.08;99146.87;4465972;32;33103;-64
2022/01/30 04:32:52;;;;;;;;;;;;;;;7.34;54.92;99140.97;4466461;32;35253;-62
2022/01/30 04:35:26;;;;;;;;;;;;;;;7.13;55.97;99151.34;4466221;32;33500;-64
2022/01/30 04:38:51;;;;;;;;;;;;;;;7.37;55.36;99143.44;4462920;32;34170;-65
2022/01/30 04:41:06;;;;;;;;;;;;;;;7.68;54.54;99151.91;4461280;32;33399;-64
2022/01/30 04:52:50;;;;;;;;;;;;;;;7.55;55.43;99154.59;4459455;32;35211;-64
2022/01/30 04:57:51;;;;;;;;;;;;;;;7.39;56.45;99151.31;4465293;32;33737;-64
2022/01/30 05:05:46;;;;;;;;;;;;;;;7.86;54.78;99155.03;4466769;32;35391;-64
2022/01/30 05:08:14;;;;;;;;;;;;;;;7.51;56.09;99141.59;4464761;32;32136;-63
2022/01/30 05:10:42;;;;;;;;;;;;;;;7.54;55.96;99158.19;4467112;32;33842;-65
2022/01/30 05:13:16;;;;;;;;;;;;;;;7.37;56.68;99159.41;4466353;32;33845;-63
2022/01/30 05:15:44;;;;;;;;;;;;;;;7.45;56.62;99161.53;4465553;32;35051;-64
2022/01/30 05:18:21;;;;;;;;;;;;;;;7.66;56.04;99164.47;4466281;32;34476;-63
2022/01/30 05:20:51;;;;;;;;;;;;;;;7.62;56.02;99153.19;4465961;32;33186;-62
2022/01/30 05:23:20;;;;;;;;;;;;;;;7.56;56.06;99158.09;4465765;32;34531;-63
2022/01/30 05:25:49;;;;;;;;;;;;;;;7.51;56.16;99155.75;4466305;32;33883;-62
2022/01/30 05:28:17;;;;;;;;;;;;;;;7.44;56.41;99149.16;4465986;32;33601;-62
2022/01/30 05:30:45;;;;;;;;;;;;;;;7.24;57.29;99148.78;4466360;32;34427;-64
2022/01/30 05:33:14;;;;;;;;;;;;;;;7.16;57.75;99143.16;4464621;32;35589;-64
2022/01/30 05:35:42;;;;;;;;;;;;;;;7.26;57.62;99146.00;4465947;32;34192;-62
2022/01/30 05:38:10;;;;;;;;;;;;;;;7.30;57.65;99134.19;4452252;32;32494;-63
2022/01/30 05:40:40;;;;;;;;;;;;;;;7.35;57.37;99139.16;4466813;32;32379;-64
2022/01/30 05:43:08;;;;;;;;;;;;;;;7.39;57.29;99141.53;4464417;32;33851;-62
2022/01/30 05:45:40;;;;;;;;;;;;;;;7.53;56.82;99142.34;4466413;32;34983;-63
2022/01/30 05:48:15;;;;;;;;;;;;;;;7.35;57.35;99141.84;4465135;32;33742;-63
2022/01/30 05:50:43;;;;;;;;;;;;;;;7.40;57.30;99134.38;4465647;32;34279;-64
2022/01/30 05:53:13;;;;;;;;;;;;;;;7.50;58.03;99135.41;4464638;32;33404;-64
2022/01/30 05:55:41;;;;;;;;;;;;;;;7.36;57.48;99132.91;4465900;32;34776;-64
2022/01/30 05:58:09;;;;;;;;;;;;;;;7.22;58.05;99141.84;4466113;32;33703;-64
2022/01/30 06:00:37;;;;;;;;;;;;;;;7.11;58.51;99152.41;4462422;32;34066;-65
2022/01/30 06:03:05;;;;;;;;;;;;;;;7.46;57.62;99148.09;4466098;32;32376;-64
2022/01/30 06:05:32;;;;;;;;;;;;;;;7.55;57.10;99143.94;4465948;32;34518;-63
2022/01/30 06:08:09;;;;;;;;;;;;;;;7.60;57.02;99149.75;4455220;32;32239;-68
2022/01/30 06:10:37;;;;;;;;;;;;;;;7.79;56.16;99146.63;4466798;32;34196;-64
2022/01/30 06:13:04;;;;;;;;;;;;;;;7.53;57.18;99131.69;4467508;32;35681;-67
2022/01/30 06:15:32;;;;;;;;;;;;;;;7.51;56.90;99121.12;4467078;32;34414;-65
2022/01/30 06:18:00;;;;;;;;;;;;;;;7.47;56.96;99119.66;4463991;32;32472;-68
2022/01/30 06:20:30;;;;;;;;;;;;;;;7.63;56.45;99140.72;4466830;32;33608;-66
2022/01/30 06:23:01;;;;;;;;;;;;;;;7.56;56.66;99150.97;4464798;32;33486;-65
2022/01/30 06:25:43;;;;;;;;;;;;;;;7.44;56.82;99170.47;4465271;32;39294;-66
2022/01/30 06:28:16;;;;;;;;;;;;;;;7.50;56.97;99150.53;4465852;32;33592;-67
2022/01/30 06:30:49;;;;;;;;;;;;;;;7.84;55.73;99148.97;4464781;32;32794;-67
2022/01/30 06:33:18;;;;;;;;;;;;;;;7.56;56.61;99148.28;4464299;32;33988;-65
2022/01/30 06:35:48;;;;;;;;;;;;;;;7.62;56.67;99153.19;4460396;32;34430;-65
2022/01/30 06:38:16;;;;;;;;;;;;;;;8.04;55.67;99143.03;4463679;32;33472;-69
2022/01/30 06:40:49;;;;;;;;;;;;;;;8.35;54.84;99149.59;4464449;32;33099;-65
2022/01/30 06:43:16;;;;;;;;;;;;;;;8.43;54.46;99154.37;4466014;32;35518;-66
2022/01/30 06:45:57;;;;;;;;;;;;;;;7.87;56.19;99180.72;4459150;32;34612;-67
2022/01/30 06:48:31;;;;;;;;;;;;;;;8.07;55.96;99165.94;4464164;32;33629;-65
2022/01/30 06:51:05;;;;;;;;;;;;;;;8.52;54.87;99168.84;4466293;32;35142;-66
2022/01/30 06:53:33;;;;;;;;;;;;;;;8.68;54.28;99179.19;4465623;32;34430;-65
2022/01/30 06:56:04;;;;;;;;;;;;;;;8.53;54.65;99183.88;4464124;32;32027;-66
2022/01/30 06:58:38;;;;;;;;;;;;;;;8.26;55.03;99176.94;4458647;32;37363;-65
2022/01/30 07:01:17;;;;;;;;;;;;;;;8.02;54.61;99152.94;4460228;32;33632;-66
2022/01/30 07:03:45;;;;;;;;;;;;;;;8.39;54.32;99167.09;4465240;32;34136;-66
2022/01/30 07:06:13;;;;;;;;;;;;;;;8.79;53.00;99166.72;4462489;32;35025;-65
2022/01/30 07:08:40;;;;;;;;;;;;;;;8.17;54.39;99149.13;4463966;32;34391;-65
2022/01/30 07:11:07;;;;;;;;;;;;;;;7.85;54.85;99153.34;4462964;32;34157;-66
2022/01/30 07:13:35;;;;;;;;;;;;;;;8.16;53.29;99144.78;4465757;32;34345;-65
2022/01/30 07:16:03;;;;;;;;;;;;;;;8.20;53.42;99152.56;4464470;31;34389;-66
2022/01/30 07:18:30;;;;;;;;;;;;;;;8.09;53.19;99151.53;4465411;32;33611;-66
2022/01/30 07:20:58;;;;;;;;;;;;;;;8.61;51.47;99130.81;4464502;32;32617;-68
2022/01/30 07:23:26;;;;;;;;;;;;;;;8.52;51.94;99134.16;4465725;32;34111;-68
2022/01/30 07:25:57;;;;;;;;;;;;;;;9.01;50.52;99138.38;4463292;32;34100;-69
2022/01/30 07:28:24;;;;;;;;;;;;;;;9.80;48.55;99133.88;4465360;32;32100;-66
2022/01/30 07:30:52;;;;;;;;;;;;;;;10.71;45.62;99128.06;4463343;32;32677;-65
2022/01/30 07:33:21;;;;;;;;;;;;;;;11.09;44.26;99131.13;4462280;32;34785;-67
2022/01/30 07:35:50;;;;;;;;;;;;;;;11.06;43.57;99126.88;4463778;32;34139;-66
2022/01/30 07:38:17;;;;;;;;;;;;;;;10.80;43.50;99149.69;4459232;32;33415;-66
2022/01/30 07:40:45;;;;;;;;;;;;;;;11.14;42.87;99139.63;4464093;32;34064;-66
2022/01/30 07:43:12;;;;;;;;;;;;;;;11.51;41.73;99147.09;4464208;32;34363;-66
2022/01/30 07:45:40;;;;;;;;;;;;;;;12.11;39.86;99148.84;4464854;32;34218;-66
2022/01/30 07:48:08;;;;;;;;;;;;;;;12.39;38.43;99153.53;4464300;32;34249;-66
2022/01/30 07:50:35;;;;;;;;;;;;;;;11.99;39.31;99141.06;4462630;32;32886;-67
2022/01/30 07:53:02;;;;;;;;;;;;;;;11.23;40.39;99136.09;4464693;32;34128;-66
2022/01/30 07:55:30;;;;;;;;;;;;;;;9.80;42.63;99144.56;4464764;32;34914;-66
2022/01/30 07:57:57;;;;;;;;;;;;;;;9.54;43.02;99150.19;4465607;32;33746;-66
2022/01/30 08:00:25;;;;;;;;;;;;;;;9.91;42.35;99123.13;4463231;32;32854;-66
2022/01/30 08:02:52;;;;;;;;;;;;;;;9.90;42.20;99161.53;4465076;32;35515;-65
2022/01/30 08:05:20;;;;;;;;;;;;;;;9.91;42.13;99162.37;4466113;32;34008;-66
2022/01/30 08:07:47;;;;;;;;;;;;;;;9.63;42.52;99166.44;4458034;32;34694;-65
2022/01/30 08:10:15;;;;;;;;;;;;;;;9.98;42.59;99188.53;4466491;32;32967;-66
2022/01/30 08:12:42;;;;;;;;;;;;;;;10.19;43.11;99199.28;4465642;32;35442;-67
2022/01/30 08:15:09;;;;;;;;;;;;;;;9.83;46.68;99205.78;4465644;32;34411;-65
2022/01/30 08:17:38;;;;;;;;;;;;;;;9.68;47.45;99205.19;4465097;32;33419;-66
2022/01/30 08:20:06;;;;;;;;;;;;;;;10.24;45.87;99214.94;4466339;32;33948;-66
2022/01/30 08:22:46;;;;;;;;;;;;;;;10.61;44.68;99223.50;4466433;32;34553;-66
2022/01/30 08:25:14;;;;;;;;;;;;;;;10.18;46.26;99210.97;4466350;32;34417;-65
2022/01/30 08:27:41;;;;;;;;;;;;;;;9.96;47.83;99217.19;4466231;32;33354;-66
2022/01/30 08:30:08;;;;;;;;;;;;;;;9.63;48.73;99217.19;4464531;32;35167;-66
2022/01/30 08:32:42;;;;;;;;;;;;;;;9.58;48.46;99217.56;4466856;32;35832;-65
2022/01/30 08:35:10;;;;;;;;;;;;;;;9.75;48.45;99235.78;4465213;32;34516;-68
2022/01/30 08:37:38;;;;;;;;;;;;;;;10.48;47.03;99242.38;4466135;32;33859;-65
2022/01/30 08:40:06;;;;;;;;;;;;;;;10.72;45.47;99211.88;4465788;32;34132;-65
2022/01/30 08:42:33;;;;;;;;;;;;;;;10.83;45.86;99252.00;4465005;32;34209;-66
2022/01/30 08:45:01;;;;;;;;;;;;;;;10.86;45.36;99240.19;4465927;32;35502;-67
2022/01/30 08:47:28;;;;;;;;;;;;;;;10.78;44.97;99231.94;4468684;32;33686;-65
2022/01/30 08:49:55;;;;;;;;;;;;;;;10.91;44.16;99236.16;4467570;32;35311;-66
2022/01/30 08:52:23;;;;;;;;;;;;;;;10.62;43.58;99209.13;4466432;32;34338;-69
2022/01/30 08:54:50;;;;;;;;;;;;;;;11.33;42.16;99222.75;4467541;32;34190;-66
2022/01/30 08:57:18;;;;;;;;;;;;;;;11.69;40.91;99236.63;4467505;32;32432;-66
2022/01/30 08:59:45;;;;;;;;;;;;;;;11.80;40.78;99233.00;4469043;32;33171;-66
2022/01/30 09:02:13;;;;;;;;;;;;;;;11.43;39.99;99237.06;4467611;32;35409;-68
2022/01/30 09:04:40;;;;;;;;;;;;;;;11.64;39.98;99242.38;4468015;32;35239;-67
2022/01/30 09:07:07;;;;;;;;;;;;;;;12.21;38.83;99256.19;4468509;32;33181;-66
2022/01/30 09:09:35;;;;;;;;;;;;;;;12.14;37.96;99247.00;4468346;32;34267;-66
2022/01/30 09:12:03;;;;;;;;;;;;;;;12.31;36.84;99246.31;4465910;32;34321;-66
2022/01/30 09:14:30;;;;;;;;;;;;;;;12.23;37.69;99261.41;4468585;32;34356;-64
2022/01/30 09:16:58;;;;;;;;;;;;;;;13.16;35.61;99266.31;4463507;32;33775;-66
2022/01/30 09:19:42;;;;;;;;;;;;;;;12.49;36.41;99269.81;4468746;32;35332;-68
2022/01/30 09:22:10;;;;;;;;;;;;;;;12.96;34.85;99254.72;4468964;32;33491;-67
2022/01/30 09:24:37;;;;;;;;;;;;;;;13.30;33.83;99281.19;4467092;32;34496;-63
2022/01/30 09:27:05;;;;;;;;;;;;;;;14.00;33.20;99273.62;4467742;32;33146;-63
2022/01/30 09:29:33;;;;;;;;;;;;;;;14.66;32.68;99276.13;4468417;32;35116;-66
2022/01/30 09:32:00;;;;;;;;;;;;;;;16.43;29.52;99264.22;4465044;32;34025;-66
2022/01/30 09:34:28;;;;;;;;;;;;;;;16.04;29.22;99253.94;4467465;32;34676;-66
2022/01/30 09:36:57;;;;;;;;;;;;;;;15.55;30.08;99250.09;4466962;32;34663;-67
2022/01/30 09:39:24;;;;;;;;;;;;;;;13.89;32.11;99271.13;4467901;32;34111;-66
2022/01/30 09:41:52;;;;;;;;;;;;;;;13.33;33.91;99277.37;4467210;32;34273;-69
2022/01/30 09:44:20;;;;;;;;;;;;;;;12.28;35.66;99292.22;4467429;32;34312;-66
2022/01/30 09:46:48;;;;;;;;;;;;;;;11.75;35.78;99268.25;4467279;32;33352;-68
2022/01/30 09:49:17;;;;;;;;;;;;;;;10.63;38.50;99268.87;4466883;32;34804;-68
2022/01/30 09:51:44;;;;;;;;;;;;;;;11.47;37.44;99267.13;4465509;32;33888;-69
2022/01/30 09:54:12;;;;;;;;;;;;;;;10.82;39.59;99258.34;4468587;32;34484;-66
2022/01/30 09:56:40;;;;;;;;;;;;;;;11.58;37.46;99256.31;4467651;32;34344;-67
2022/01/30 09:59:07;;;;;;;;;;;;;;;11.40;37.91;99255.22;4465996;32;35207;-70
2022/01/30 10:01:35;;;;;;;;;;;;;;;11.81;37.50;99275.78;4465416;32;34035;-69
2022/01/30 10:04:04;;;;;;;;;;;;;;;12.56;36.71;99261.06;4462700;32;34495;-67
2022/01/30 10:06:51;;;;;;;;;;;;;;;12.05;37.13;99272.78;4459264;32;33578;-66
2022/01/30 10:09:23;;;;;;;;;;;;;;;11.87;37.54;99295.84;4464288;32;35349;-66
2022/01/30 10:12:00;;;;;;;;;;;;;;;10.50;40.28;99290.44;4466167;32;34075;-65
2022/01/30 10:14:28;;;;;;;;;;;;;;;10.62;40.25;99285.88;4467017;32;35432;-65
2022/01/30 10:17:24;;;;;;;;;;;;;;;10.03;40.89;99309.28;4466433;32;33634;-66
2022/01/30 10:20:05;;;;;;;;;;;;;;;9.29;43.24;99319.53;4456887;32;34461;-65
2022/01/30 10:22:33;;;;;;;;;;;;;;;8.33;48.10;99324.00;4466521;32;34350;-65
2022/01/30 10:25:01;;;;;;;;;;;;;;;8.42;46.87;99322.50;4468117;32;34243;-66
2022/01/30 10:27:29;;;;;;;;;;;;;;;7.63;48.75;99317.34;4464985;32;33269;-65
2022/01/30 10:30:06;;;;;;;;;;;;;;;7.79;47.89;99300.31;4466204;32;34126;-66
2022/01/30 10:32:34;;;;;;;;;;;;;;;7.58;46.12;99286.69;4467077;32;34138;-65
2022/01/30 10:35:07;;;;;;;;;;;;;;;7.59;46.16;99302.56;4466764;32;35005;-66
2022/01/30 10:37:38;;;;;;;;;;;;;;;7.72;45.54;99307.87;4464461;32;34645;-66
2022/01/30 10:40:07;;;;;;;;;;;;;;;8.07;45.33;99318.72;4464001;32;35855;-66
2022/01/30 10:42:38;;;;;;;;;;;;;;;8.40;43.72;99304.78;4462678;32;33643;-67
2022/01/30 10:45:07;;;;;;;;;;;;;;;8.51;44.22;99317.34;4468203;32;35445;-66
2022/01/30 10:47:36;;;;;;;;;;;;;;;8.54;43.01;99314.47;4468580;32;34085;-66
2022/01/30 10:50:15;;;;;;;;;;;;;;;8.84;41.74;99314.00;4466205;32;33943;-66
2022/01/30 10:52:51;;;;;;;;;;;;;;;8.84;41.85;99316.69;4465095;32;34518;-66
2022/01/30 10:55:31;;;;;;;;;;;;;;;8.73;41.24;99303.28;4464555;32;33018;-68
2022/01/30 10:58:00;;;;;;;;;;;;;;;9.03;40.42;99293.97;4465572;32;33094;-64
2022/01/30 11:00:45;;;;;;;;;;;;;;;9.70;38.59;99306.63;4465432;32;34589;-66
2022/01/30 11:03:31;;;;;;;;;;;;;;;10.53;37.15;99300.91;4466236;32;34227;-67
2022/01/30 11:05:59;;;;;;;;;;;;;;;10.41;37.58;99308.09;4456494;32;34363;-67
2022/01/30 11:08:29;;;;;;;;;;;;;;;11.35;35.59;99303.00;4465172;32;34444;-67
2022/01/30 11:11:06;;;;;;;;;;;;;;;11.19;35.75;99292.72;4465919;32;34213;-68
2022/01/30 11:13:43;;;;;;;;;;;;;;;10.70;36.43;99294.16;4460243;32;35488;-66
2022/01/30 11:18:57;;;;;;;;;;;;;;;10.28;37.34;99277.97;4465456;32;33057;-66
2022/01/30 11:21:24;;;;;;;;;;;;;;;10.52;36.85;99301.00;4456279;32;35401;-67
2022/01/30 11:23:52;;;;;;;;;;;;;;;10.92;35.79;99274.50;4466286;32;34006;-71
2022/01/30 11:26:20;;;;;;;;;;;;;;;10.18;36.29;99263.59;4465383;32;33102;-70
2022/01/30 11:28:47;;;;;;;;;;;;;;;10.06;36.13;99277.94;4457766;32;34555;-66
2022/01/30 11:31:15;;;;;;;;;;;;;;;9.96;36.49;99277.84;4463799;32;35304;-65
2022/01/30 11:33:43;;;;;;;;;;;;;;;9.59;36.57;99256.66;4465806;32;34265;-64
2022/01/30 11:36:11;;;;;;;;;;;;;;;9.32;37.98;99273.03;4466686;32;35178;-66
2022/01/30 11:38:39;;;;;;;;;;;;;;;9.33;40.74;99275.56;4462790;32;33440;-66
2022/01/30 11:41:07;;;;;;;;;;;;;;;9.29;41.68;99286.63;4463868;32;34048;-65
2022/01/30 11:43:35;;;;;;;;;;;;;;;9.31;42.12;99279.38;4464972;32;35459;-65
2022/01/30 11:46:15;;;;;;;;;;;;;;;9.41;41.75;99301.72;4466462;32;34365;-65
2022/01/30 11:48:43;;;;;;;;;;;;;;;9.03;43.52;99275.28;4463910;32;34667;-65
2022/01/30 11:51:10;;;;;;;;;;;;;;;9.15;44.49;99273.47;4467966;32;35205;-68
2022/01/30 11:53:37;;;;;;;;;;;;;;;9.15;42.07;99244.09;4457404;32;34189;-66
2022/01/30 11:56:06;;;;;;;;;;;;;;;9.65;40.84;99252.69;4464340;32;35245;-65
2022/01/30 11:58:35;;;;;;;;;;;;;;;9.63;39.43;99239.44;4465686;32;33634;-65
2022/01/30 12:01:03;;;;;;;;;;;;;;;9.60;39.15;99226.34;4472319;32;32944;-66
2022/01/30 12:03:32;;;;;;;;;;;;;;;9.80;37.40;99227.41;4467914;32;34936;-66
2022/01/30 12:06:18;;;;;;;;;;;;;;;10.35;37.56;99227.47;4471638;32;31755;-65
2022/01/30 12:08:56;;;;;;;;;;;;;;;10.14;36.25;99204.12;4464181;32;33610;-66
2022/01/30 12:14:06;;;;;;;;;;;;;;;10.04;36.31;99198.69;4465093;32;34081;-64
2022/01/30 12:16:46;;;;;;;;;;;;;;;9.92;37.13;99220.22;4463833;32;33581;-65
2022/01/30 12:19:16;;;;;;;;;;;;;;;9.78;36.04;99195.44;4464208;32;33677;-66
2022/01/30 12:21:44;;;;;;;;;;;;;;;9.97;35.37;99197.50;4468681;32;35121;-66
2022/01/30 12:24:21;;;;;;;;;;;;;;;10.06;34.24;99193.22;4465489;32;34411;-66
2022/01/30 12:26:49;;;;;;;;;;;;;;;10.04;34.69;99198.69;4467671;32;34381;-67
2022/01/30 12:29:35;;;;;;;;;;;;;;;9.77;34.91;99227.66;4471505;32;34486;-65
2022/01/30 12:32:21;;;;;;;;;;;;;;;9.09;37.36;99227.59;4462006;32;33082;-65
2022/01/30 12:35:01;;;;;;;;;;;;;;;9.76;35.88;99229.50;4461050;32;34045;-65
2022/01/30 12:37:29;;;;;;;;;;;;;;;9.82;36.79;99244.16;4468932;32;33208;-66
2022/01/30 12:39:58;;;;;;;;;;;;;;;9.76;36.51;99226.81;4468845;32;32466;-65
2022/01/30 12:42:26;;;;;;;;;;;;;;;9.46;36.62;99199.84;4468787;32;35122;-65
2022/01/30 12:44:58;;;;;;;;;;;;;;;9.54;36.82;99202.78;4472376;32;33827;-67
2022/01/30 12:47:25;;;;;;;;;;;;;;;9.76;35.65;99232.16;4464193;32;33080;-65
2022/01/30 12:49:57;;;;;;;;;;;;;;;9.85;35.64;99201.16;4464939;32;32499;-65
2022/01/30 12:54:56;;;;;;;;;;;;;;;10.41;35.17;99218.94;4465886;32;32728;-65
2022/01/30 12:57:24;;;;;;;;;;;;;;;10.70;34.54;99205.81;4460612;32;35443;-65
2022/01/30 12:59:56;;;;;;;;;;;;;;;9.77;36.54;99230.34;4461631;32;33599;-66
2022/01/30 13:02:28;;;;;;;;;;;;;;;10.17;36.33;99225.28;4461570;32;34159;-65
2022/01/30 13:05:04;;;;;;;;;;;;;;;10.55;36.39;99215.13;4460571;32;34334;-65
2022/01/30 13:07:32;;;;;;;;;;;;;;;10.59;35.80;99219.25;4467803;32;33156;-65
2022/01/30 13:10:11;;;;;;;;;;;;;;;10.36;35.12;99221.16;4466800;32;34727;-66
2022/01/30 13:12:38;;;;;;;;;;;;;;;10.00;36.05;99188.38;4469194;32;35319;-66
2022/01/30 13:15:07;;;;;;;;;;;;;;;10.16;36.42;99202.19;4467444;32;34293;-66
2022/01/30 13:17:34;;;;;;;;;;;;;;;10.64;35.23;99166.19;4468344;32;34205;-67
2022/01/30 13:20:05;;;;;;;;;;;;;;;10.26;34.45;99187.13;4465429;32;33871;-66
2022/01/30 13:22:34;;;;;;;;;;;;;;;10.39;35.08;99186.97;4464099;32;34092;-65
2022/01/30 13:25:06;;;;;;;;;;;;;;;9.98;33.89;99159.12;4468671;32;34292;-67
2022/01/30 13:27:35;;;;;;;;;;;;;;;10.57;33.77;99181.91;4466408;32;34581;-65
2022/01/30 13:30:03;;;;;;;;;;;;;;;10.51;33.15;99163.69;4463472;32;34660;-71
2022/01/30 13:32:31;;;;;;;;;;;;;;;10.32;34.25;99196.47;4462082;32;34068;-66
2022/01/30 13:34:59;;;;;;;;;;;;;;;10.11;33.94;99208.87;4468911;32;34311;-65
2022/01/30 13:37:26;;;;;;;;;;;;;;;9.92;34.43;99201.50;4466239;32;35441;-68
2022/01/30 13:47:55;;;;;;;;;;;;;;;10.47;34.17;99243.38;4463086;32;33803;-66
2022/01/30 13:50:26;;;;;;;;;;;;;;;9.18;37.47;99270.56;4462659;32;34481;-65
2022/01/30 13:53:00;;;;;;;;;;;;;;;8.95;37.96;99294.50;4465308;32;34887;-66
2022/01/30 13:55:28;;;;;;;;;;;;;;;9.03;37.48;99240.56;4466375;32;35437;-67
2022/01/30 13:57:57;;;;;;;;;;;;;;;8.44;39.45;99265.41;4468055;32;34484;-66
2022/01/30 14:00:29;;;;;;;;;;;;;;;9.11;38.20;99283.53;4458103;32;32943;-68
2022/01/30 14:03:00;;;;;;;;;;;;;;;8.57;38.48;99286.69;4462470;32;34084;-66
2022/01/30 14:05:28;;;;;;;;;;;;;;;8.63;39.35;99275.56;4462607;32;34353;-66
2022/01/30 14:07:56;;;;;;;;;;;;;;;8.39;39.93;99272.91;4457487;32;34655;-66